Time;durP1;ratioP1;P1;durP2;ratioP2;P2;SDS_P1;SDS_P2;PMS_P1;PMS_P2;Temp;Humidity;BMP_temperature;BMP_pressure;BME280_temperature;BME280_humidity;BME280_pressure;Samples;Min_cycle;Max_cycle;Signal;HPM_P1;HPM_P2
2023/11/20 00:02:02;;;;;;;9.00;0.43;;;11.80;99.90;;;;;;5015942;28;20036;-77
2023/11/20 00:04:28;;;;;;;5.22;0.00;;;11.70;99.90;;;;;;5016111;28;20034;-77
2023/11/20 00:06:53;;;;;;;15.68;1.33;;;11.80;99.90;;;;;;5016313;28;20107;-77
2023/11/20 00:09:19;;;;;;;10.15;1.05;;;11.70;99.90;;;;;;5016375;28;20030;-77
2023/11/20 00:11:45;;;;;;;8.63;0.70;;;11.60;99.90;;;;;;5014406;28;20026;-77
2023/11/20 00:14:11;;;;;;;15.82;1.75;;;11.60;99.90;;;;;;5014498;28;20508;-77
2023/11/20 00:16:36;;;;;;;7.47;0.50;;;11.60;99.90;;;;;;5015211;28;20385;-77
2023/11/20 00:19:03;;;;;;;13.75;0.63;;;11.50;99.90;;;;;;5015896;28;20032;-77
2023/11/20 00:21:29;;;;;;;11.27;0.47;;;11.50;99.90;;;;;;5015658;28;20034;-77
2023/11/20 00:23:55;;;;;;;14.20;1.27;;;11.60;99.90;;;;;;5015286;28;20029;-77
2023/11/20 00:26:20;;;;;;;11.40;1.17;;;11.50;99.90;;;;;;5013960;28;20034;-77
2023/11/20 00:28:46;;;;;;;11.05;1.10;;;11.50;99.90;;;;;;5015109;28;20064;-77
2023/11/20 00:31:13;;;;;;;16.70;1.83;;;11.50;99.90;;;;;;5015308;28;20065;-77
2023/11/20 00:33:39;;;;;;;11.68;1.05;;;11.50;99.90;;;;;;5014227;28;20026;-77
2023/11/20 00:36:05;;;;;;;9.68;0.88;;;11.40;99.90;;;;;;5015778;28;20037;-76
2023/11/20 00:38:30;;;;;;;8.10;0.73;;;11.40;99.90;;;;;;5014305;28;20022;-77
2023/11/20 00:40:56;;;;;;;11.20;0.13;;;11.40;99.90;;;;;;5015340;28;20061;-77
2023/11/20 00:43:21;;;;;;;10.32;0.28;;;11.40;99.90;;;;;;5014115;28;20076;-77
2023/11/20 00:45:47;;;;;;;5.88;0.00;;;11.40;99.90;;;;;;5015107;28;20033;-76
2023/11/20 00:48:13;;;;;;;7.78;0.80;;;11.40;99.90;;;;;;5014797;28;20029;-77
2023/11/20 00:50:38;;;;;;;16.77;0.75;;;11.40;99.90;;;;;;5015040;28;20065;-77
2023/11/20 00:53:04;;;;;;;6.57;0.65;;;11.40;99.90;;;;;;5013702;28;20021;-77
2023/11/20 00:55:29;;;;;;;9.95;0.50;;;11.40;99.90;;;;;;5014638;28;20105;-77
2023/11/20 00:57:55;;;;;;;11.68;0.43;;;;;;;;;;5013773;28;20393;-77
2023/11/20 01:00:21;;;;;;;9.90;0.82;;;11.30;99.90;;;;;;5014894;28;20088;-76
2023/11/20 01:02:49;;;;;;;12.68;1.00;;;11.30;99.90;;;;;;5015102;28;20083;-77
2023/11/20 01:05:15;;;;;;;13.75;0.50;;;11.30;99.90;;;;;;5015037;28;20057;-77
2023/11/20 01:07:40;;;;;;;8.23;0.38;;;11.30;99.90;;;;;;5014833;28;20478;-77
2023/11/20 01:10:07;;;;;;;9.10;0.75;;;11.30;99.90;;;;;;5013479;28;20021;-77
2023/11/20 01:12:32;;;;;;;3.13;0.45;;;11.20;99.90;;;;;;5014645;28;20477;-77
2023/11/20 01:14:58;;;;;;;10.95;0.80;;;11.30;99.90;;;;;;5014690;28;20026;-77
2023/11/20 01:17:23;;;;;;;8.77;0.88;;;11.30;99.90;;;;;;5014754;28;20105;-77
2023/11/20 01:19:49;;;;;;;6.43;0.95;;;11.30;99.90;;;;;;5013265;28;20029;-77
2023/11/20 01:22:14;;;;;;;4.55;0.13;;;11.30;99.90;;;;;;5014387;28;20030;-77
2023/11/20 01:24:40;;;;;;;6.45;0.50;;;11.30;99.90;;;;;;5014473;28;20026;-77
2023/11/20 01:27:06;;;;;;;13.00;0.50;;;11.30;99.90;;;;;;5014303;28;20064;-77
2023/11/20 01:29:33;;;;;;;3.47;0.25;;;11.30;99.90;;;;;;5014400;28;20022;-77
2023/11/20 01:31:58;;;;;;;4.90;0.40;;;11.20;99.90;;;;;;5013000;28;20489;-77
2023/11/20 01:34:25;;;;;;;3.30;0.60;;;11.20;99.90;;;;;;5013932;28;20019;-77
2023/11/20 01:36:50;;;;;;;6.50;0.95;;;11.20;99.90;;;;;;5014574;28;20010;-77
2023/11/20 01:39:16;;;;;;;5.20;0.73;;;11.20;99.90;;;;;;5014173;28;20374;-77
2023/11/20 01:41:41;;;;;;;5.05;0.00;;;11.20;99.90;;;;;;5014232;28;20033;-76
2023/11/20 01:44:07;;;;;;;4.60;0.90;;;11.10;99.90;;;;;;5013009;28;20030;-77
2023/11/20 01:46:34;;;;;;;8.82;0.40;;;11.20;99.90;;;;;;5014693;28;20525;-76
2023/11/20 01:49:01;;;;;;;7.75;0.10;;;11.10;99.90;;;;;;5014528;28;20034;-77
2023/11/20 01:51:31;;;;;;;12.23;1.00;;;11.10;99.90;;;;;;5014158;28;20436;-77
2023/11/20 01:53:59;;;;;;;8.93;0.22;;;11.20;99.90;;;;;;5014318;28;20032;-76
2023/11/20 01:56:26;;;;;;;8.88;0.63;;;11.20;99.90;;;;;;5014583;28;20045;-77
2023/11/20 01:58:59;;;;;;;11.73;1.42;;;11.10;99.90;;;;;;5013982;28;20367;-76
2023/11/20 02:01:24;;;;;;;6.40;0.85;;;11.10;99.90;;;;;;5012840;28;20113;-77
2023/11/20 02:03:58;;;;;;;10.77;1.10;;;11.10;99.90;;;;;;5012703;28;20068;-76
2023/11/20 02:06:25;;;;;;;11.38;1.65;;;11.20;99.90;;;;;;5015727;28;20026;-77
2023/11/20 02:08:51;;;;;;;12.25;1.92;;;11.20;99.90;;;;;;5016956;28;20365;-77
2023/11/20 02:11:17;;;;;;;11.48;0.75;;;11.20;99.90;;;;;;5017603;28;20018;-77
2023/11/20 02:13:43;;;;;;;11.45;1.25;;;11.20;99.90;;;;;;5017625;28;20026;-77
2023/11/20 02:16:09;;;;;;;5.28;0.15;;;11.20;99.90;;;;;;5016986;28;20014;-76
2023/11/20 02:18:35;;;;;;;7.07;0.77;;;11.10;99.90;;;;;;5016621;28;20485;-76
2023/11/20 02:21:02;;;;;;;9.55;0.73;;;11.00;99.90;;;;;;5016446;28;20021;-77
2023/11/20 02:23:28;;;;;;;7.35;0.57;;;11.10;99.90;;;;;;5017964;28;20377;-76
2023/11/20 02:26:24;;;;;;;11.48;0.95;;;11.00;99.90;;;;;;5017947;28;20033;-77
2023/11/20 02:29:04;;;;;;;6.55;0.63;;;11.00;99.90;;;;;;5017730;28;20033;-77
2023/11/20 02:31:33;;;;;;;7.15;0.32;;;11.10;99.90;;;;;;5017844;28;20026;-76
2023/11/20 02:34:01;;;;;;;4.28;0.57;;;11.00;99.90;;;;;;5016344;28;20071;-76
2023/11/20 02:36:27;;;;;;;10.45;1.25;;;11.00;99.90;;;;;;5016575;28;20020;-77
2023/11/20 02:38:53;;;;;;;18.67;1.52;;;11.00;99.90;;;;;;5017743;28;20481;-77
2023/11/20 02:41:19;;;;;;;10.27;0.50;;;11.10;99.90;;;;;;5017865;28;20433;-77
2023/11/20 02:43:45;;;;;;;13.90;1.48;;;11.10;99.90;;;;;;5017451;28;20068;-77
2023/11/20 02:46:10;;;;;;;6.38;0.25;;;11.00;99.90;;;;;;5017295;28;20034;-77
2023/11/20 02:48:36;;;;;;;12.60;1.05;;;11.00;99.90;;;;;;5016086;28;20087;-76
2023/11/20 02:51:04;;;;;;;11.50;1.23;;;11.10;99.90;;;;;;5015807;28;20026;-77
2023/11/20 02:53:30;;;;;;;7.35;0.15;;;11.00;99.90;;;;;;5016029;28;20018;-77
2023/11/20 02:55:56;;;;;;;13.57;0.82;;;11.00;99.90;;;;;;5017186;28;20022;-77
2023/11/20 02:58:22;;;;;;;12.70;0.80;;;11.00;99.90;;;;;;5016718;28;20030;-77
2023/11/20 03:00:48;;;;;;;11.23;1.42;;;11.00;99.90;;;;;;5016937;28;20038;-77
2023/11/20 03:03:15;;;;;;;14.27;0.70;;;11.00;99.90;;;;;;5017135;28;20018;-76
2023/11/20 03:05:42;;;;;;;15.95;1.35;;;11.00;99.90;;;;;;5015781;28;20026;-77
2023/11/20 03:08:08;;;;;;;10.43;0.70;;;11.00;99.90;;;;;;5015508;28;20028;-77
2023/11/20 03:10:36;;;;;;;8.63;0.95;;;11.00;99.90;;;;;;5015760;28;20026;-77
2023/11/20 03:13:01;;;;;;;20.13;1.77;;;11.00;99.90;;;;;;5015460;28;20034;-77
2023/11/20 03:15:27;;;;;;;13.13;0.60;;;11.00;99.90;;;;;;5015228;28;20482;-77
2023/11/20 03:17:54;;;;;;;19.65;0.70;;;11.00;99.90;;;;;;5016571;28;20029;-77
2023/11/20 03:20:20;;;;;;;14.65;1.27;;;10.90;99.90;;;;;;5016710;28;20038;-77
2023/11/20 03:22:46;;;;;;;11.13;1.50;;;11.00;99.90;;;;;;5016726;28;20044;-76
2023/11/20 03:25:11;;;;;;;12.52;1.90;;;11.10;99.90;;;;;;5016904;28;20029;-77
2023/11/20 03:27:38;;;;;;;17.90;0.22;;;11.00;99.90;;;;;;5016839;28;20030;-77
2023/11/20 03:30:04;;;;;;;19.65;0.40;;;11.00;99.90;;;;;;5016302;28;20551;-77
2023/11/20 03:32:30;;;;;;;12.80;0.60;;;11.00;99.90;;;;;;5016311;28;20052;-77
2023/11/20 03:34:55;;;;;;;24.73;1.33;;;11.00;99.90;;;;;;5014733;28;20022;-77
2023/11/20 03:37:21;;;;;;;13.30;0.75;;;10.90;99.90;;;;;;5016482;28;20439;-77
2023/11/20 03:39:47;;;;;;;11.02;0.63;;;12.00;99.90;;;;;;5016152;28;20025;-77
2023/11/20 03:42:12;;;;;;;24.25;1.20;;;10.90;99.90;;;;;;5016094;28;20481;-77
2023/11/20 03:44:38;;;;;;;13.93;2.15;;;10.90;99.90;;;;;;5014732;28;20064;-77
2023/11/20 03:47:04;;;;;;;17.90;1.50;;;10.90;99.90;;;;;;5014734;28;20032;-77
2023/11/20 03:49:29;;;;;;;17.85;0.88;;;10.80;99.90;;;;;;5015952;28;20497;-78
2023/11/20 03:51:55;;;;;;;9.55;0.75;;;10.80;99.90;;;;;;5015666;28;20053;-76
2023/11/20 03:54:21;;;;;;;23.00;2.03;;;10.80;99.90;;;;;;5015827;28;20022;-77
2023/11/20 03:56:46;;;;;;;14.10;0.88;;;10.80;99.90;;;;;;5016347;28;20045;-77
2023/11/20 03:59:12;;;;;;;23.75;3.22;;;10.80;99.90;;;;;;5015354;28;20076;-77
2023/11/20 04:01:38;;;;;;;17.65;0.90;;;10.80;99.90;;;;;;5017172;28;20022;-77
2023/11/20 04:04:05;;;;;;;22.73;1.38;;;10.80;99.90;;;;;;5016437;28;20389;-77
2023/11/20 04:06:30;;;;;;;20.90;2.35;;;10.80;99.90;;;;;;5015426;28;20083;-77
2023/11/20 04:08:56;;;;;;;22.05;1.33;;;10.80;99.90;;;;;;5016886;28;20026;-77
2023/11/20 04:11:21;;;;;;;16.40;0.75;;;10.80;99.90;;;;;;5016379;28;20374;-77
2023/11/20 04:13:47;;;;;;;14.70;1.45;;;10.80;99.90;;;;;;5016346;28;20615;-77
2023/11/20 04:16:14;;;;;;;14.27;1.70;;;10.80;99.90;;;;;;5015299;28;20068;-77
2023/11/20 04:18:39;;;;;;;20.45;0.75;;;10.80;99.90;;;;;;5015918;28;20497;-78
2023/11/20 04:21:05;;;;;;;15.95;0.40;;;10.80;99.90;;;;;;5015039;28;20028;-77
2023/11/20 04:23:31;;;;;;;12.05;0.98;;;10.90;99.90;;;;;;5014723;28;20054;-77
2023/11/20 04:25:59;;;;;;;19.00;1.92;;;10.90;99.90;;;;;;5015472;28;20030;-76
2023/11/20 04:28:27;;;;;;;16.02;0.63;;;10.90;99.90;;;;;;5016101;28;20051;-78
2023/11/20 04:30:52;;;;;;;20.65;2.38;;;10.90;99.90;;;;;;5015839;28;20030;-77
2023/11/20 04:33:18;;;;;;;10.57;0.65;;;10.90;99.90;;;;;;5016398;28;20385;-77
2023/11/20 04:35:45;;;;;;;17.17;1.75;;;10.90;99.90;;;;;;5016238;28;20529;-78
2023/11/20 04:38:10;;;;;;;14.70;1.42;;;10.90;99.90;;;;;;5014597;28;20030;-77
2023/11/20 04:40:36;;;;;;;10.68;0.22;;;10.90;99.90;;;;;;5014902;28;20121;-77
2023/11/20 04:43:01;;;;;;;15.50;0.63;;;10.90;99.90;;;;;;5015166;28;20087;-77
2023/11/20 04:45:27;;;;;;;8.98;0.85;;;10.90;99.90;;;;;;5013292;28;20113;-77
2023/11/20 04:47:52;;;;;;;14.13;1.27;;;11.40;99.90;;;;;;5014987;28;20109;-77
2023/11/20 04:50:18;;;;;;;19.35;1.33;;;10.90;99.90;;;;;;5014880;28;20072;-77
2023/11/20 04:52:43;;;;;;;10.18;0.68;;;10.90;99.90;;;;;;5014843;28;20029;-77
2023/11/20 04:55:09;;;;;;;11.50;0.40;;;10.90;99.90;;;;;;5014714;28;20026;-77
2023/11/20 04:57:35;;;;;;;8.75;0.28;;;11.00;99.90;;;;;;5013466;28;20033;-77
2023/11/20 05:00:02;;;;;;;12.05;0.70;;;10.90;99.90;;;;;;5014099;28;20032;-76
2023/11/20 05:02:28;;;;;;;11.32;0.30;;;10.90;99.90;;;;;;5015080;28;20030;-77
2023/11/20 05:04:54;;;;;;;11.05;1.02;;;;;;;;;;5014926;28;20022;-77
2023/11/20 05:07:20;;;;;;;6.28;0.30;;;10.90;99.90;;;;;;5014993;28;20381;-77
2023/11/20 05:09:45;;;;;;;13.18;0.63;;;10.80;99.90;;;;;;5014428;28;20017;-77
2023/11/20 05:12:11;;;;;;;12.93;0.65;;;10.80;99.90;;;;;;5012853;28;20030;-77
2023/11/20 05:14:36;;;;;;;6.95;0.80;;;10.80;99.90;;;;;;5014940;28;20022;-77
2023/11/20 05:17:02;;;;;;;17.33;0.63;;;10.80;99.90;;;;;;5014915;28;20481;-77
2023/11/20 05:19:31;;;;;;;11.07;0.57;;;10.80;99.90;;;;;;5015031;28;20153;-76
2023/11/20 05:21:57;;;;;;;14.10;0.35;;;11.20;99.90;;;;;;5015527;28;20026;-78
2023/11/20 05:24:24;;;;;;;8.88;0.60;;;10.80;99.90;;;;;;5015929;28;20033;-77
2023/11/20 05:26:52;;;;;;;10.85;0.15;;;10.80;99.90;;;;;;5016634;28;20041;-76
2023/11/20 05:29:17;;;;;;;18.13;0.85;;;10.80;99.90;;;;;;5014616;28;20030;-77
2023/11/20 05:31:44;;;;;;;20.60;0.45;;;10.80;99.90;;;;;;5015992;28;20022;-77
2023/11/20 05:34:09;;;;;;;10.60;0.95;;;10.90;99.90;;;;;;5017558;28;20026;-78
2023/11/20 05:36:35;;;;;;;12.75;0.88;;;10.80;99.90;;;;;;5015647;28;20535;-78
2023/11/20 05:39:01;;;;;;;20.35;0.45;;;10.80;99.90;;;;;;5016790;28;20030;-77
2023/11/20 05:41:26;;;;;;;20.13;1.00;;;10.70;99.90;;;;;;5015729;28;20402;-78
2023/11/20 05:43:52;;;;;;;6.72;1.35;;;10.80;99.90;;;;;;5017742;28;20029;-78
2023/11/20 05:46:17;;;;;;;10.38;0.75;;;10.80;99.90;;;;;;5017567;28;20022;-77
2023/11/20 05:48:43;;;;;;;9.90;0.65;;;10.80;99.90;;;;;;5017774;28;20096;-78
2023/11/20 05:51:09;;;;;;;11.80;0.70;;;11.60;99.90;;;;;;5015856;28;20049;-76
2023/11/20 05:53:34;;;;;;;16.40;1.05;;;10.80;99.90;;;;;;5017129;28;20029;-77
2023/11/20 05:56:00;;;;;;;15.25;1.52;;;11.40;99.90;;;;;;5017022;28;20022;-78
2023/11/20 05:58:26;;;;;;;8.32;0.20;;;10.80;99.90;;;;;;5015459;28;20022;-78
2023/11/20 06:00:51;;;;;;;20.38;1.85;;;10.80;99.90;;;;;;5013532;28;20069;-75
2023/11/20 06:03:17;;;;;;;19.17;1.90;;;10.80;99.90;;;;;;5013887;28;20033;-78
2023/11/20 06:05:42;;;;;;;14.70;1.50;;;10.80;99.90;;;;;;5016511;28;20382;-78
2023/11/20 06:08:08;;;;;;;11.02;1.08;;;10.80;99.90;;;;;;5017016;28;20022;-77
2023/11/20 06:10:34;;;;;;;8.45;0.88;;;10.70;99.90;;;;;;5016066;28;20025;-77
2023/11/20 06:12:59;;;;;;;18.67;1.00;;;10.70;99.90;;;;;;5014730;28;20033;-78
2023/11/20 06:15:25;;;;;;;15.70;0.85;;;10.70;99.90;;;;;;5016742;28;20104;-77
2023/11/20 06:17:50;;;;;;;13.23;0.25;;;10.70;99.90;;;;;;5016618;28;20022;-78
2023/11/20 06:20:16;;;;;;;15.15;0.63;;;10.60;99.90;;;;;;5015773;28;20100;-77
2023/11/20 06:22:45;;;;;;;8.55;0.50;;;10.70;99.90;;;;;;5014083;28;20421;-76
2023/11/20 06:25:12;;;;;;;15.68;0.60;;;11.00;99.90;;;;;;5015235;28;20033;-78
2023/11/20 06:27:37;;;;;;;10.45;0.77;;;10.60;99.90;;;;;;5016678;28;20478;-78
2023/11/20 06:30:03;;;;;;;10.65;1.25;;;10.60;99.90;;;;;;5016929;28;20064;-78
2023/11/20 06:32:29;;;;;;;7.80;0.20;;;10.60;99.90;;;;;;5016817;28;20033;-78
2023/11/20 06:34:54;;;;;;;13.70;0.80;;;10.60;99.90;;;;;;5014845;28;20022;-78
2023/11/20 06:37:21;;;;;;;10.98;1.45;;;10.60;99.90;;;;;;5013407;28;20022;-76
2023/11/20 06:39:47;;;;;;;16.50;0.50;;;10.60;99.90;;;;;;5015390;28;20413;-76
2023/11/20 06:42:12;;;;;;;8.95;1.15;;;10.60;99.90;;;;;;5014838;28;20032;-78
2023/11/20 06:44:38;;;;;;;15.57;0.63;;;10.80;99.90;;;;;;5016058;28;20113;-78
2023/11/20 06:47:07;;;;;;;16.35;1.23;;;10.90;99.90;;;;;;5015361;28;20041;-78
2023/11/20 06:49:34;;;;;;;;;;;10.40;99.90;;;;;;5015808;28;20109;-76
2023/11/20 06:51:59;;;;;;;11.77;0.77;;;10.40;99.90;;;;;;5015038;28;19913;-78
2023/11/20 06:54:25;;;;;;;18.02;1.40;;;10.40;99.90;;;;;;5019401;28;20030;-77
2023/11/20 06:56:50;;;;;;;13.90;0.68;;;10.40;99.90;;;;;;5019959;28;20026;-78
2023/11/20 06:59:16;;;;;;;13.43;0.43;;;11.30;99.90;;;;;;5017963;28;20033;-78
2023/11/20 07:01:46;;;;;;;15.48;1.73;;;10.30;99.90;;;;;;5017665;28;20084;-77
2023/11/20 07:04:15;;;;;;;8.30;0.38;;;10.20;99.90;;;;;;5018598;28;20033;-76
2023/11/20 07:06:49;;;;;;;21.70;1.58;;;10.20;99.90;;;;;;5018721;28;20073;-76
2023/11/20 07:09:15;;;;;;;8.68;1.10;;;12.40;99.90;;;;;;5018820;28;20022;-78
2023/11/20 07:11:41;;;;;;;20.23;1.70;;;10.20;99.90;;;;;;5020404;28;20025;-78
2023/11/20 07:14:08;;;;;;;10.98;1.70;;;10.20;99.90;;;;;;5019322;28;20018;-77
2023/11/20 07:16:35;;;;;;;11.95;0.88;;;10.20;99.90;;;;;;5018664;28;20467;-78
2023/11/20 07:19:00;;;;;;;21.75;1.85;;;10.20;99.90;;;;;;5020648;28;20021;-78
2023/11/20 07:21:26;;;;;;;17.35;1.90;;;10.20;99.90;;;;;;5020188;28;20489;-78
2023/11/20 07:23:51;;;;;;;13.90;0.50;;;11.20;99.90;;;;;;5020568;28;20038;-78
2023/11/20 07:26:20;;;;;;;12.73;1.77;;;10.30;99.90;;;;;;5019364;28;20050;-76
2023/11/20 07:28:48;;;;;;;15.52;1.17;;;10.30;99.90;;;;;;5016947;28;20055;-76
2023/11/20 07:31:24;;;;;;;14.13;1.42;;;10.20;99.90;;;;;;5016616;28;20136;-78
2023/11/20 07:33:49;;;;;;;16.33;0.60;;;10.30;99.90;;;;;;5018369;28;20105;-78
2023/11/20 07:36:17;;;;;;;17.83;1.38;;;10.20;99.90;;;;;;5017906;28;20116;-77
2023/11/20 07:38:43;;;;;;;5.03;0.28;;;10.20;99.90;;;;;;5017255;28;20439;-77
2023/11/20 07:41:08;;;;;;;9.98;0.63;;;10.20;99.90;;;;;;5016334;28;20061;-77
2023/11/20 07:43:34;;;;;;;11.65;0.15;;;10.20;99.90;;;;;;5017607;28;20114;-78
2023/11/20 07:45:59;;;;;;;13.45;1.10;;;10.20;99.90;;;;;;5016012;28;20116;-77
2023/11/20 07:48:25;;;;;;;5.90;0.40;;;10.20;99.90;;;;;;5015965;28;20462;-77
2023/11/20 07:50:51;;;;;;;23.15;1.67;;;10.20;99.90;;;;;;5017018;28;20366;-77
2023/11/20 07:53:17;;;;;;;19.52;2.35;;;10.10;99.90;;;;;;5017655;28;20014;-77
2023/11/20 07:55:43;;;;;;;19.10;1.70;;;;;;;;;;5016160;28;20022;-78
2023/11/20 07:58:09;;;;;;;15.27;1.73;;;10.20;99.90;;;;;;5017205;28;20028;-77
2023/11/20 08:00:34;;;;;;;11.98;0.70;;;10.20;99.90;;;;;;5017203;28;20033;-78
2023/11/20 08:03:00;;;;;;;13.90;0.38;;;10.20;99.90;;;;;;5015893;28;20485;-77
2023/11/20 08:05:25;;;;;;;13.27;1.42;;;11.90;99.90;;;;;;5016259;28;20494;-77
2023/11/20 08:07:51;;;;;;;10.10;0.45;;;10.10;99.90;;;;;;5017036;28;20040;-77
2023/11/20 08:10:18;;;;;;;15.13;0.50;;;10.30;99.90;;;;;;5017222;28;20033;-78
2023/11/20 08:12:44;;;;;;;15.63;0.35;;;10.30;99.90;;;;;;5015508;28;20022;-76
2023/11/20 08:15:11;;;;;;;18.75;1.70;;;10.40;99.90;;;;;;5016171;28;20037;-77
2023/11/20 08:17:38;;;;;;;16.52;1.38;;;10.40;99.90;;;;;;5016084;28;20022;-78
2023/11/20 08:20:06;;;;;;;11.15;0.75;;;10.40;99.90;;;;;;5017472;28;20026;-77
2023/11/20 08:22:32;;;;;;;26.60;1.73;;;10.40;99.90;;;;;;5016923;28;20058;-77
2023/11/20 08:24:58;;;;;;;13.18;0.88;;;10.50;99.90;;;;;;5016037;28;20061;-77
2023/11/20 08:27:24;;;;;;;23.42;0.77;;;10.60;99.90;;;;;;5015445;28;20374;-77
2023/11/20 08:29:49;;;;;;;22.20;2.03;;;10.60;99.90;;;;;;5015437;28;20021;-77
2023/11/20 08:32:16;;;;;;;14.80;1.65;;;10.80;99.90;;;;;;5016656;28;20537;-77
2023/11/20 08:34:41;;;;;;;17.17;1.75;;;10.80;99.90;;;;;;5016810;28;20057;-77
2023/11/20 08:37:07;;;;;;;15.35;1.30;;;10.90;99.90;;;;;;5014911;28;20018;-77
2023/11/20 08:39:35;;;;;;;9.07;0.70;;;11.00;99.90;;;;;;5015163;28;20018;-77
2023/11/20 08:42:01;;;;;;;14.50;1.25;;;14.20;99.90;;;;;;5015201;28;20034;-77
2023/11/20 08:44:27;;;;;;;20.25;1.95;;;11.10;99.90;;;;;;5016715;28;20025;-77
2023/11/20 08:46:52;;;;;;;17.23;1.50;;;11.00;99.90;;;;;;5015229;28;20504;-77
2023/11/20 08:49:19;;;;;;;10.82;1.05;;;11.00;99.90;;;;;;5014883;28;20084;-77
2023/11/20 08:51:44;;;;;;;16.83;1.67;;;11.00;99.90;;;;;;5016364;28;20030;-77
2023/11/20 08:54:10;;;;;;;12.05;0.52;;;11.80;99.90;;;;;;5015924;28;20037;-78
2023/11/20 08:56:35;;;;;;;12.05;1.10;;;11.00;99.90;;;;;;5016994;28;20045;-77
2023/11/20 08:59:01;;;;;;;13.13;1.35;;;10.90;99.90;;;;;;5014632;28;20033;-77
2023/11/20 09:01:33;;;;;;;13.80;0.85;;;10.90;99.90;;;;;;5015806;28;20049;-78
2023/11/20 09:04:03;;;;;;;12.70;1.10;;;10.80;99.90;;;;;;5016251;28;20087;-77
2023/11/20 09:06:29;;;;;;;22.00;1.45;;;10.70;99.90;;;;;;5015764;28;20112;-77
2023/11/20 09:08:54;;;;;;;14.23;0.98;;;10.70;99.90;;;;;;5015792;28;20053;-77
2023/11/20 09:11:21;;;;;;;12.05;0.68;;;11.50;99.90;;;;;;5016005;28;20040;-77
2023/11/20 09:13:47;;;;;;;11.32;1.25;;;10.60;99.90;;;;;;5015990;28;20048;-77
2023/11/20 09:16:12;;;;;;;10.48;1.13;;;10.60;99.90;;;;;;5015656;28;20018;-77
2023/11/20 09:18:38;;;;;;;17.05;0.73;;;10.50;99.90;;;;;;5014116;28;20398;-78
2023/11/20 09:21:05;;;;;;;18.15;1.52;;;10.50;99.90;;;;;;5014533;28;20544;-77
2023/11/20 09:23:31;;;;;;;17.50;1.30;;;10.50;99.90;;;;;;5014249;28;20022;-77
2023/11/20 09:25:57;;;;;;;20.88;1.92;;;10.40;99.90;;;;;;5014588;28;20033;-77
2023/11/20 09:28:23;;;;;;;12.10;1.63;;;10.40;99.90;;;;;;5015233;28;20489;-77
2023/11/20 09:30:49;;;;;;;8.93;0.40;;;10.40;99.90;;;;;;5014342;28;20143;-77
2023/11/20 09:33:14;;;;;;;17.88;2.00;;;10.40;99.90;;;;;;5015957;28;20053;-77
2023/11/20 09:35:40;;;;;;;14.55;1.17;;;10.40;99.90;;;;;;5015620;28;20097;-78
2023/11/20 09:38:06;;;;;;;14.15;1.05;;;10.40;99.90;;;;;;5015311;28;20022;-77
2023/11/20 09:40:32;;;;;;;16.33;1.63;;;10.40;99.90;;;;;;5014231;28;20409;-77
2023/11/20 09:42:59;;;;;;;14.55;1.27;;;10.40;99.90;;;;;;5014286;28;20113;-78
2023/11/20 09:45:28;;;;;;;14.40;1.15;;;10.30;99.90;;;;;;5015287;28;20025;-77
2023/11/20 09:47:59;;;;;;;12.40;0.75;;;10.30;99.90;;;;;;5015106;28;20040;-77
2023/11/20 09:50:28;;;;;;;17.95;1.35;;;10.30;99.90;;;;;;5015388;28;20487;-77
2023/11/20 09:52:55;;;;;;;14.60;0.50;;;10.30;99.90;;;;;;5014089;28;20104;-77
2023/11/20 09:55:22;;;;;;;10.90;1.65;;;10.30;99.90;;;;;;5015083;28;20060;-77
2023/11/20 09:57:49;;;;;;;13.52;1.88;;;10.30;99.90;;;;;;5015138;28;20029;-76
2023/11/20 10:00:17;;;;;;;15.45;0.63;;;10.40;99.90;;;;;;5014857;28;20133;-77
2023/11/20 10:02:45;;;;;;;17.67;1.45;;;10.40;99.90;;;;;;5014138;28;20405;-77
2023/11/20 10:05:15;;;;;;;13.50;0.70;;;10.50;99.90;;;;;;5015034;28;20022;-77
2023/11/20 10:07:43;;;;;;;18.00;1.00;;;10.60;99.90;;;;;;5015777;28;20018;-77
2023/11/20 10:10:11;;;;;;;13.68;1.30;;;10.60;99.90;;;;;;5014872;28;20564;-77
2023/11/20 10:12:38;;;;;;;13.27;0.85;;;10.60;99.90;;;;;;5014935;28;20022;-76
2023/11/20 10:15:04;;;;;;;12.80;1.40;;;10.60;99.90;;;;;;5014687;28;20057;-76
2023/11/20 10:17:30;;;;;;;13.48;0.73;;;10.60;99.90;;;;;;5013574;28;20032;-78
2023/11/20 10:19:56;;;;;;;11.60;0.85;;;10.60;99.90;;;;;;5013654;28;20105;-76
2023/11/20 10:22:26;;;;;;;10.77;0.82;;;10.60;99.90;;;;;;5013646;28;20029;-77
2023/11/20 10:24:52;;;;;;;22.40;2.30;;;10.60;99.90;;;;;;5015190;28;20030;-77
2023/11/20 10:27:18;;;;;;;10.80;1.35;;;10.60;99.90;;;;;;5016352;28;20045;-77
2023/11/20 10:29:43;;;;;;;13.15;0.68;;;10.80;99.90;;;;;;5018575;28;20030;-77
2023/11/20 10:32:11;;;;;;;15.07;0.77;;;10.80;99.90;;;;;;5017009;28;20057;-77
2023/11/20 10:34:37;;;;;;;17.98;1.85;;;10.80;99.90;;;;;;5018885;28;20017;-78
2023/11/20 10:37:09;;;;;;;12.63;1.33;;;10.80;99.90;;;;;;5018661;28;20504;-76
2023/11/20 10:39:35;;;;;;;15.95;1.20;;;10.90;99.90;;;;;;5018495;28;20125;-77
2023/11/20 10:42:01;;;;;;;17.67;1.98;;;10.80;99.90;;;;;;5017637;28;20366;-78
2023/11/20 10:44:27;;;;;;;12.55;0.93;;;10.90;99.90;;;;;;5018423;28;20033;-77
2023/11/20 10:46:53;;;;;;;16.98;1.20;;;11.00;99.90;;;;;;5018413;28;20424;-77
2023/11/20 10:49:24;;;;;;;19.08;1.48;;;11.00;99.90;;;;;;5018320;28;20022;-77
2023/11/20 10:51:58;;;;;;;12.73;0.68;;;11.00;99.90;;;;;;5019148;28;20022;-78
2023/11/20 10:54:45;;;;;;;13.63;1.10;;;11.10;99.90;;;;;;5018505;28;20029;-77
2023/11/20 10:57:11;;;;;;;20.60;0.80;;;11.10;99.90;;;;;;5017262;28;20033;-77
2023/11/20 10:59:39;;;;;;;17.92;1.90;;;11.20;99.90;;;;;;5017994;28;20026;-77
2023/11/20 11:02:10;;;;;;;13.77;0.95;;;11.20;99.90;;;;;;5018278;28;20021;-76
2023/11/20 11:04:38;;;;;;;14.32;0.90;;;11.50;99.90;;;;;;5017153;28;20401;-77
2023/11/20 11:07:08;;;;;;;11.30;0.88;;;11.80;99.90;;;;;;5020712;28;20022;-77
2023/11/20 11:09:37;;;;;;;13.13;1.40;;;11.80;99.90;;;;;;5019667;28;20592;-78
2023/11/20 11:12:06;;;;;;;11.07;1.70;;;12.10;99.90;;;;;;5019880;28;20042;-76
2023/11/20 11:14:31;;;;;;;15.20;1.30;;;12.30;99.90;;;;;;5016484;28;20094;-76
2023/11/20 11:17:06;;;;;;;13.40;1.48;;;12.30;99.90;;;;;;5016822;28;20026;-76
2023/11/20 11:19:42;;;;;;;14.70;1.27;;;12.40;99.90;;;;;;5017817;28;20072;-78
2023/11/20 11:22:13;;;;;;;28.55;1.23;;;12.40;99.90;;;;;;5019418;28;20085;-78
2023/11/20 11:24:44;;;;;;;11.88;1.30;;;12.50;99.90;;;;;;5018252;28;20025;-78
2023/11/20 11:27:19;;;;;;;19.13;1.73;;;12.40;99.90;;;;;;5018487;28;20030;-78
2023/11/20 11:29:56;;;;;;;15.13;0.98;;;12.30;99.90;;;;;;5018081;28;20045;-78
2023/11/20 11:32:47;;;;;;;14.05;0.85;;;12.20;99.90;;;;;;5019850;28;20536;-78
2023/11/20 11:35:30;;;;;;;9.88;1.13;;;12.00;99.90;;;;;;5017663;28;20022;-77
2023/11/20 11:38:15;;;;;;;17.05;1.88;;;12.00;99.90;;;;;;5019331;28;20022;-77
2023/11/20 11:40:43;;;;;;;7.45;0.35;;;11.90;99.90;;;;;;5018847;28;20037;-77
2023/11/20 11:43:18;;;;;;;11.00;0.65;;;11.80;99.90;;;;;;5018150;28;20025;-78
2023/11/20 11:45:47;;;;;;;5.47;0.20;;;11.80;99.90;;;;;;5020421;28;20036;-78
2023/11/20 11:48:13;;;;;;;12.35;1.25;;;11.70;99.90;;;;;;5018635;28;20026;-78
2023/11/20 11:50:39;;;;;;;15.23;1.70;;;11.70;99.90;;;;;;5017602;28;20116;-78
2023/11/20 11:53:06;;;;;;;11.90;0.73;;;13.20;99.90;;;;;;5018228;28;20021;-78
2023/11/20 11:55:42;;;;;;;12.70;0.80;;;11.50;99.90;;;;;;5018513;28;20030;-77
2023/11/20 11:58:15;;;;;;;14.05;0.70;;;11.40;99.90;;;;;;5016868;28;20093;-77
2023/11/20 12:00:41;;;;;;;14.52;1.02;;;11.30;99.90;;;;;;5016507;28;20133;-77
2023/11/20 12:03:11;;;;;;;6.93;0.82;;;11.30;99.90;;;;;;5017988;28;20022;-77
2023/11/20 12:05:59;;;;;;;9.05;1.17;;;11.20;99.90;;;;;;5015999;28;20022;-77
2023/11/20 12:08:33;;;;;;;10.00;0.47;;;11.20;99.90;;;;;;5017010;28;20033;-77
2023/11/20 12:11:00;;;;;;;9.32;0.98;;;11.10;99.90;;;;;;5016875;28;20022;-77
2023/11/20 12:13:29;;;;;;;12.82;0.95;;;11.10;99.90;;;;;;5016122;28;20375;-77
2023/11/20 12:16:07;;;;;;;6.95;0.55;;;11.00;99.90;;;;;;5016762;28;20022;-78
2023/11/20 12:18:33;;;;;;;9.70;0.63;;;11.00;99.90;;;;;;5016469;28;20034;-77
2023/11/20 12:21:03;;;;;;;10.63;0.90;;;11.00;99.90;;;;;;5017740;28;20044;-77
2023/11/20 12:23:32;;;;;;;18.95;0.88;;;11.00;99.90;;;;;;5016258;28;20026;-77
2023/11/20 12:25:59;;;;;;;15.80;1.38;;;11.00;99.90;;;;;;5018091;28;20496;-77
2023/11/20 12:28:27;;;;;;;11.18;0.70;;;11.10;99.90;;;;;;5015783;28;20087;-77
2023/11/20 12:30:54;;;;;;;5.97;0.28;;;11.40;99.90;;;;;;5016755;28;20041;-77
2023/11/20 12:33:22;;;;;;;15.57;0.73;;;11.60;99.90;;;;;;5017657;28;20469;-77
2023/11/20 12:35:53;;;;;;;17.85;0.77;;;11.80;99.90;;;;;;5016754;28;20022;-78
2023/11/20 12:38:20;;;;;;;11.63;0.95;;;11.70;99.90;;;;;;5016137;28;20037;-78
2023/11/20 12:40:52;;;;;;;5.72;0.30;;;11.60;99.90;;;;;;5015746;28;20106;-78